sensor_id;sensor_type;location;lat;lon;timestamp;temperature;humidity
14049;DHT22;7099;53.922;10.728;2023-06-26T00:03:58;21.50;64.80
14049;DHT22;7099;53.922;10.728;2023-06-26T00:08:04;21.40;65.00
14049;DHT22;7099;53.922;10.728;2023-06-26T00:12:11;21.30;65.30
14049;DHT22;7099;53.922;10.728;2023-06-26T00:16:16;21.20;65.50
14049;DHT22;7099;53.922;10.728;2023-06-26T00:20:22;21.20;65.80
14049;DHT22;7099;53.922;10.728;2023-06-26T00:24:30;21.10;66.00
14049;DHT22;7099;53.922;10.728;2023-06-26T00:28:35;21.00;66.00
14049;DHT22;7099;53.922;10.728;2023-06-26T00:32:41;20.90;66.30
14049;DHT22;7099;53.922;10.728;2023-06-26T00:36:46;20.80;66.40
14049;DHT22;7099;53.922;10.728;2023-06-26T00:40:52;20.80;66.70
14049;DHT22;7099;53.922;10.728;2023-06-26T00:45:01;20.70;66.90
14049;DHT22;7099;53.922;10.728;2023-06-26T00:49:06;20.70;67.00
14049;DHT22;7099;53.922;10.728;2023-06-26T00:53:12;20.60;67.20
14049;DHT22;7099;53.922;10.728;2023-06-26T00:57:18;20.50;67.20
14049;DHT22;7099;53.922;10.728;2023-06-26T01:01:24;20.40;67.40
14049;DHT22;7099;53.922;10.728;2023-06-26T01:05:31;20.40;67.50
14049;DHT22;7099;53.922;10.728;2023-06-26T01:09:36;20.30;68.00
14049;DHT22;7099;53.922;10.728;2023-06-26T01:13:42;20.30;68.20
14049;DHT22;7099;53.922;10.728;2023-06-26T01:17:51;20.20;68.20
14049;DHT22;7099;53.922;10.728;2023-06-26T01:26:33;20.10;68.70
14049;DHT22;7099;53.922;10.728;2023-06-26T01:30:44;20.10;69.00
14049;DHT22;7099;53.922;10.728;2023-06-26T01:34:51;20.00;69.30
14049;DHT22;7099;53.922;10.728;2023-06-26T01:38:57;20.00;69.50
14049;DHT22;7099;53.922;10.728;2023-06-26T01:43:03;20.00;69.60
14049;DHT22;7099;53.922;10.728;2023-06-26T01:47:12;19.90;69.60
14049;DHT22;7099;53.922;10.728;2023-06-26T01:51:28;19.90;69.80
14049;DHT22;7099;53.922;10.728;2023-06-26T01:59:44;19.80;70.00
14049;DHT22;7099;53.922;10.728;2023-06-26T02:03:50;19.80;70.10
14049;DHT22;7099;53.922;10.728;2023-06-26T02:07:56;19.70;70.40
14049;DHT22;7099;53.922;10.728;2023-06-26T02:12:02;19.70;70.40
14049;DHT22;7099;53.922;10.728;2023-06-26T02:16:07;19.60;70.50
14049;DHT22;7099;53.922;10.728;2023-06-26T02:20:13;19.50;70.60
14049;DHT22;7099;53.922;10.728;2023-06-26T02:24:19;19.50;70.80
14049;DHT22;7099;53.922;10.728;2023-06-26T02:28:25;19.50;70.90
14049;DHT22;7099;53.922;10.728;2023-06-26T02:32:30;19.40;70.90
14049;DHT22;7099;53.922;10.728;2023-06-26T02:36:36;19.40;71.20
14049;DHT22;7099;53.922;10.728;2023-06-26T02:40:41;19.30;71.20
14049;DHT22;7099;53.922;10.728;2023-06-26T02:44:47;19.30;71.40
14049;DHT22;7099;53.922;10.728;2023-06-26T02:48:52;19.30;71.40
14049;DHT22;7099;53.922;10.728;2023-06-26T02:52:58;19.20;71.70
14049;DHT22;7099;53.922;10.728;2023-06-26T02:57:04;19.20;72.00
14049;DHT22;7099;53.922;10.728;2023-06-26T03:01:09;19.20;72.10
14049;DHT22;7099;53.922;10.728;2023-06-26T03:05:15;19.20;72.20
14049;DHT22;7099;53.922;10.728;2023-06-26T03:09:20;19.10;72.20
14049;DHT22;7099;53.922;10.728;2023-06-26T03:13:27;19.10;72.30
14049;DHT22;7099;53.922;10.728;2023-06-26T03:17:32;19.10;72.40
14049;DHT22;7099;53.922;10.728;2023-06-26T03:21:38;19.10;72.50
14049;DHT22;7099;53.922;10.728;2023-06-26T03:25:47;19.00;72.50
14049;DHT22;7099;53.922;10.728;2023-06-26T03:29:52;19.00;72.60
14049;DHT22;7099;53.922;10.728;2023-06-26T03:33:58;19.10;72.90
14049;DHT22;7099;53.922;10.728;2023-06-26T03:38:04;19.10;73.10
14049;DHT22;7099;53.922;10.728;2023-06-26T03:42:10;19.20;73.30
14049;DHT22;7099;53.922;10.728;2023-06-26T03:46:16;19.10;73.30
14049;DHT22;7099;53.922;10.728;2023-06-26T03:50:21;19.00;73.30
14049;DHT22;7099;53.922;10.728;2023-06-26T03:54:27;19.00;73.70
14049;DHT22;7099;53.922;10.728;2023-06-26T03:58:32;19.00;73.70
14049;DHT22;7099;53.922;10.728;2023-06-26T04:02:38;19.10;73.70
14049;DHT22;7099;53.922;10.728;2023-06-26T04:06:44;19.20;74.00
14049;DHT22;7099;53.922;10.728;2023-06-26T04:10:49;19.20;74.00
14049;DHT22;7099;53.922;10.728;2023-06-26T04:14:57;19.20;74.30
14049;DHT22;7099;53.922;10.728;2023-06-26T04:19:02;19.30;74.60
14049;DHT22;7099;53.922;10.728;2023-06-26T04:23:09;19.30;74.80
14049;DHT22;7099;53.922;10.728;2023-06-26T04:27:15;19.40;75.00
14049;DHT22;7099;53.922;10.728;2023-06-26T04:31:21;19.50;75.10
14049;DHT22;7099;53.922;10.728;2023-06-26T04:35:27;19.60;75.30
14049;DHT22;7099;53.922;10.728;2023-06-26T04:39:32;19.70;75.30
14049;DHT22;7099;53.922;10.728;2023-06-26T04:43:38;19.80;75.30
14049;DHT22;7099;53.922;10.728;2023-06-26T04:47:43;19.90;75.00
14049;DHT22;7099;53.922;10.728;2023-06-26T04:51:49;20.00;75.00
14049;DHT22;7099;53.922;10.728;2023-06-26T04:55:56;20.10;74.90
14049;DHT22;7099;53.922;10.728;2023-06-26T05:00:02;20.20;74.60
14049;DHT22;7099;53.922;10.728;2023-06-26T05:04:15;20.30;74.60
14049;DHT22;7099;53.922;10.728;2023-06-26T05:08:22;20.50;74.40
14049;DHT22;7099;53.922;10.728;2023-06-26T05:12:29;20.60;73.90
14049;DHT22;7099;53.922;10.728;2023-06-26T05:16:35;20.70;73.70
14049;DHT22;7099;53.922;10.728;2023-06-26T05:20:40;20.90;73.40
14049;DHT22;7099;53.922;10.728;2023-06-26T05:24:46;21.10;73.40
14049;DHT22;7099;53.922;10.728;2023-06-26T05:28:53;21.20;73.70
14049;DHT22;7099;53.922;10.728;2023-06-26T05:33:00;21.30;73.10
14049;DHT22;7099;53.922;10.728;2023-06-26T05:37:07;21.50;72.00
14049;DHT22;7099;53.922;10.728;2023-06-26T05:41:13;21.70;72.20
14049;DHT22;7099;53.922;10.728;2023-06-26T05:45:19;21.90;71.40
14049;DHT22;7099;53.922;10.728;2023-06-26T05:49:24;22.00;71.20
14049;DHT22;7099;53.922;10.728;2023-06-26T05:53:30;22.20;71.10
14049;DHT22;7099;53.922;10.728;2023-06-26T05:57:36;22.30;70.90
14049;DHT22;7099;53.922;10.728;2023-06-26T06:01:43;22.50;70.50
14049;DHT22;7099;53.922;10.728;2023-06-26T06:05:49;22.70;69.90
14049;DHT22;7099;53.922;10.728;2023-06-26T06:09:54;22.90;69.20
14049;DHT22;7099;53.922;10.728;2023-06-26T06:14:00;23.10;69.50
14049;DHT22;7099;53.922;10.728;2023-06-26T06:18:05;23.30;68.80
14049;DHT22;7099;53.922;10.728;2023-06-26T06:22:11;23.50;68.00
14049;DHT22;7099;53.922;10.728;2023-06-26T06:26:16;23.60;67.50
14049;DHT22;7099;53.922;10.728;2023-06-26T06:30:22;23.90;66.70
14049;DHT22;7099;53.922;10.728;2023-06-26T06:34:47;24.00;65.90
14049;DHT22;7099;53.922;10.728;2023-06-26T06:38:52;24.30;66.20
14049;DHT22;7099;53.922;10.728;2023-06-26T06:42:58;24.50;64.70
14049;DHT22;7099;53.922;10.728;2023-06-26T06:47:03;24.70;64.90
14049;DHT22;7099;53.922;10.728;2023-06-26T06:51:09;24.90;63.90
14049;DHT22;7099;53.922;10.728;2023-06-26T06:55:14;25.10;64.10
14049;DHT22;7099;53.922;10.728;2023-06-26T06:59:20;25.30;62.90
14049;DHT22;7099;53.922;10.728;2023-06-26T07:03:25;25.40;61.90
14049;DHT22;7099;53.922;10.728;2023-06-26T07:07:33;25.60;61.80
14049;DHT22;7099;53.922;10.728;2023-06-26T07:11:39;25.80;61.60
14049;DHT22;7099;53.922;10.728;2023-06-26T07:15:45;26.00;61.40
14049;DHT22;7099;53.922;10.728;2023-06-26T07:19:53;26.20;59.30
14049;DHT22;7099;53.922;10.728;2023-06-26T07:23:58;26.40;59.00
14049;DHT22;7099;53.922;10.728;2023-06-26T07:28:10;26.50;58.30
14049;DHT22;7099;53.922;10.728;2023-06-26T07:32:16;26.80;57.90
14049;DHT22;7099;53.922;10.728;2023-06-26T07:36:22;26.80;57.40
14049;DHT22;7099;53.922;10.728;2023-06-26T07:40:28;27.00;57.20
14049;DHT22;7099;53.922;10.728;2023-06-26T07:44:33;27.10;57.00
14049;DHT22;7099;53.922;10.728;2023-06-26T07:48:39;27.30;56.20
14049;DHT22;7099;53.922;10.728;2023-06-26T07:52:45;27.50;56.40
14049;DHT22;7099;53.922;10.728;2023-06-26T07:56:56;27.70;55.40
14049;DHT22;7099;53.922;10.728;2023-06-26T08:01:02;27.80;54.00
14049;DHT22;7099;53.922;10.728;2023-06-26T08:05:08;28.00;54.90
14049;DHT22;7099;53.922;10.728;2023-06-26T08:09:14;28.20;54.40
14049;DHT22;7099;53.922;10.728;2023-06-26T08:13:19;28.40;54.70
14049;DHT22;7099;53.922;10.728;2023-06-26T08:17:25;28.70;52.90
14049;DHT22;7099;53.922;10.728;2023-06-26T08:21:34;28.80;53.80
14049;DHT22;7099;53.922;10.728;2023-06-26T08:25:40;29.00;53.40
14049;DHT22;7099;53.922;10.728;2023-06-26T08:29:46;29.20;52.30
14049;DHT22;7099;53.922;10.728;2023-06-26T08:33:51;29.30;51.00
14049;DHT22;7099;53.922;10.728;2023-06-26T08:37:57;29.60;50.30
14049;DHT22;7099;53.922;10.728;2023-06-26T08:42:03;29.70;49.90
14049;DHT22;7099;53.922;10.728;2023-06-26T08:46:08;29.90;50.60
14049;DHT22;7099;53.922;10.728;2023-06-26T08:50:17;30.10;48.80
14049;DHT22;7099;53.922;10.728;2023-06-26T08:54:28;30.10;48.90
14049;DHT22;7099;53.922;10.728;2023-06-26T08:58:38;30.30;47.70
14049;DHT22;7099;53.922;10.728;2023-06-26T09:02:47;30.30;48.70
14049;DHT22;7099;53.922;10.728;2023-06-26T09:06:53;30.50;48.70
14049;DHT22;7099;53.922;10.728;2023-06-26T09:10:59;30.60;47.30
14049;DHT22;7099;53.922;10.728;2023-06-26T09:15:06;30.80;47.40
14049;DHT22;7099;53.922;10.728;2023-06-26T09:19:12;31.00;47.50
14049;DHT22;7099;53.922;10.728;2023-06-26T09:23:18;31.20;46.60
14049;DHT22;7099;53.922;10.728;2023-06-26T09:27:23;31.20;46.90
14049;DHT22;7099;53.922;10.728;2023-06-26T09:31:29;31.30;46.80
14049;DHT22;7099;53.922;10.728;2023-06-26T09:35:46;31.40;47.10
14049;DHT22;7099;53.922;10.728;2023-06-26T09:39:52;31.70;47.70
14049;DHT22;7099;53.922;10.728;2023-06-26T09:44:01;31.90;46.50
14049;DHT22;7099;53.922;10.728;2023-06-26T09:48:07;32.10;47.10
14049;DHT22;7099;53.922;10.728;2023-06-26T09:52:18;32.20;46.40
14049;DHT22;7099;53.922;10.728;2023-06-26T09:56:24;32.20;45.90
14049;DHT22;7099;53.922;10.728;2023-06-26T10:00:31;32.10;44.70
14049;DHT22;7099;53.922;10.728;2023-06-26T10:04:37;31.90;44.20
14049;DHT22;7099;53.922;10.728;2023-06-26T10:08:44;31.80;44.40
14049;DHT22;7099;53.922;10.728;2023-06-26T10:12:53;31.90;44.20
14049;DHT22;7099;53.922;10.728;2023-06-26T10:17:01;31.90;43.70
14049;DHT22;7099;53.922;10.728;2023-06-26T10:21:09;31.90;44.80
14049;DHT22;7099;53.922;10.728;2023-06-26T10:25:18;31.80;45.10
14049;DHT22;7099;53.922;10.728;2023-06-26T10:29:25;31.60;44.60
14049;DHT22;7099;53.922;10.728;2023-06-26T10:33:31;31.30;45.10
14049;DHT22;7099;53.922;10.728;2023-06-26T10:37:47;30.90;46.60
14049;DHT22;7099;53.922;10.728;2023-06-26T10:42:08;30.30;48.60
14049;DHT22;7099;53.922;10.728;2023-06-26T10:46:18;29.80;49.30
14049;DHT22;7099;53.922;10.728;2023-06-26T10:50:29;29.40;49.50
14049;DHT22;7099;53.922;10.728;2023-06-26T10:54:38;29.00;49.70
14049;DHT22;7099;53.922;10.728;2023-06-26T10:58:43;28.70;49.40
14049;DHT22;7099;53.922;10.728;2023-06-26T11:02:52;28.30;50.50
14049;DHT22;7099;53.922;10.728;2023-06-26T11:07:15;28.00;50.80
14049;DHT22;7099;53.922;10.728;2023-06-26T11:16:01;27.00;53.10
14049;DHT22;7099;53.922;10.728;2023-06-26T11:20:11;26.80;54.30
14049;DHT22;7099;53.922;10.728;2023-06-26T11:24:18;26.50;55.90
14049;DHT22;7099;53.922;10.728;2023-06-26T11:28:24;26.20;56.90
14049;DHT22;7099;53.922;10.728;2023-06-26T11:32:30;25.90;58.90
14049;DHT22;7099;53.922;10.728;2023-06-26T11:36:42;25.50;61.00
14049;DHT22;7099;53.922;10.728;2023-06-26T11:40:49;25.10;63.50
14049;DHT22;7099;53.922;10.728;2023-06-26T11:44:55;24.70;65.20
14049;DHT22;7099;53.922;10.728;2023-06-26T11:49:07;24.30;66.40
14049;DHT22;7099;53.922;10.728;2023-06-26T11:53:15;24.00;67.50
14049;DHT22;7099;53.922;10.728;2023-06-26T11:57:21;23.80;68.50
14049;DHT22;7099;53.922;10.728;2023-06-26T12:01:33;23.70;69.90
14049;DHT22;7099;53.922;10.728;2023-06-26T12:05:40;23.60;70.20
14049;DHT22;7099;53.922;10.728;2023-06-26T12:09:47;23.50;70.40
14049;DHT22;7099;53.922;10.728;2023-06-26T12:13:53;23.30;71.20
14049;DHT22;7099;53.922;10.728;2023-06-26T12:17:59;23.20;71.30
14049;DHT22;7099;53.922;10.728;2023-06-26T12:22:08;23.10;71.50
14049;DHT22;7099;53.922;10.728;2023-06-26T12:26:21;23.20;73.00
14049;DHT22;7099;53.922;10.728;2023-06-26T12:30:26;23.30;74.00
14049;DHT22;7099;53.922;10.728;2023-06-26T12:34:34;23.60;72.30
14049;DHT22;7099;53.922;10.728;2023-06-26T12:38:41;23.60;70.30
14049;DHT22;7099;53.922;10.728;2023-06-26T12:42:47;23.50;70.10
14049;DHT22;7099;53.922;10.728;2023-06-26T12:46:57;23.60;68.50
14049;DHT22;7099;53.922;10.728;2023-06-26T12:51:15;23.80;66.90
14049;DHT22;7099;53.922;10.728;2023-06-26T12:55:22;23.90;63.60
14049;DHT22;7099;53.922;10.728;2023-06-26T12:59:27;24.10;63.70
14049;DHT22;7099;53.922;10.728;2023-06-26T13:03:36;24.30;62.40
14049;DHT22;7099;53.922;10.728;2023-06-26T13:07:42;24.50;62.90
14049;DHT22;7099;53.922;10.728;2023-06-26T13:11:48;24.70;58.90
14049;DHT22;7099;53.922;10.728;2023-06-26T13:15:53;24.80;55.80
14049;DHT22;7099;53.922;10.728;2023-06-26T13:19:59;24.80;56.10
14049;DHT22;7099;53.922;10.728;2023-06-26T13:24:05;25.00;55.20
14049;DHT22;7099;53.922;10.728;2023-06-26T13:28:11;25.00;54.00
14049;DHT22;7099;53.922;10.728;2023-06-26T13:32:16;25.10;53.00
14049;DHT22;7099;53.922;10.728;2023-06-26T13:36:22;25.00;52.60
14049;DHT22;7099;53.922;10.728;2023-06-26T13:40:27;25.10;52.60
14049;DHT22;7099;53.922;10.728;2023-06-26T13:44:36;25.20;52.80
14049;DHT22;7099;53.922;10.728;2023-06-26T13:48:52;25.20;52.10
14049;DHT22;7099;53.922;10.728;2023-06-26T13:53:11;25.20;51.40
14049;DHT22;7099;53.922;10.728;2023-06-26T13:57:17;25.10;51.20
14049;DHT22;7099;53.922;10.728;2023-06-26T14:01:24;25.00;50.60
14049;DHT22;7099;53.922;10.728;2023-06-26T14:05:30;25.10;51.60
14049;DHT22;7099;53.922;10.728;2023-06-26T14:09:39;25.20;50.00
14049;DHT22;7099;53.922;10.728;2023-06-26T14:13:44;25.30;48.70
14049;DHT22;7099;53.922;10.728;2023-06-26T14:17:51;25.30;48.60
14049;DHT22;7099;53.922;10.728;2023-06-26T14:21:57;25.40;46.00
14049;DHT22;7099;53.922;10.728;2023-06-26T14:26:02;25.40;45.90
14049;DHT22;7099;53.922;10.728;2023-06-26T14:30:09;25.20;44.90
14049;DHT22;7099;53.922;10.728;2023-06-26T14:34:14;25.40;44.80
14049;DHT22;7099;53.922;10.728;2023-06-26T14:38:20;25.50;44.20
14049;DHT22;7099;53.922;10.728;2023-06-26T14:42:26;25.60;43.40
14049;DHT22;7099;53.922;10.728;2023-06-26T14:46:32;25.60;43.30
14049;DHT22;7099;53.922;10.728;2023-06-26T14:50:38;25.90;42.00
14049;DHT22;7099;53.922;10.728;2023-06-26T14:54:44;26.00;40.00
14049;DHT22;7099;53.922;10.728;2023-06-26T14:58:50;25.70;39.80
14049;DHT22;7099;53.922;10.728;2023-06-26T15:02:57;25.40;41.00
14049;DHT22;7099;53.922;10.728;2023-06-26T15:07:04;25.60;41.70
14049;DHT22;7099;53.922;10.728;2023-06-26T15:11:10;25.80;42.90
14049;DHT22;7099;53.922;10.728;2023-06-26T15:15:15;26.00;42.20
14049;DHT22;7099;53.922;10.728;2023-06-26T15:19:22;26.20;42.30
14049;DHT22;7099;53.922;10.728;2023-06-26T15:23:28;26.20;41.90
14049;DHT22;7099;53.922;10.728;2023-06-26T15:27:34;26.10;41.90
14049;DHT22;7099;53.922;10.728;2023-06-26T15:31:40;26.00;41.70
14049;DHT22;7099;53.922;10.728;2023-06-26T15:35:46;25.90;40.90
14049;DHT22;7099;53.922;10.728;2023-06-26T15:39:51;25.60;41.50
14049;DHT22;7099;53.922;10.728;2023-06-26T15:43:58;25.20;42.30
14049;DHT22;7099;53.922;10.728;2023-06-26T15:48:03;24.90;43.70
14049;DHT22;7099;53.922;10.728;2023-06-26T15:52:09;24.70;43.60
14049;DHT22;7099;53.922;10.728;2023-06-26T15:56:15;25.10;43.50
14049;DHT22;7099;53.922;10.728;2023-06-26T16:00:22;25.30;43.00
14049;DHT22;7099;53.922;10.728;2023-06-26T16:04:28;25.00;43.20
14049;DHT22;7099;53.922;10.728;2023-06-26T16:08:37;24.60;43.60
14049;DHT22;7099;53.922;10.728;2023-06-26T16:12:44;24.30;44.20
14049;DHT22;7099;53.922;10.728;2023-06-26T16:16:50;24.20;44.60
14049;DHT22;7099;53.922;10.728;2023-06-26T16:20:55;24.20;44.80
14049;DHT22;7099;53.922;10.728;2023-06-26T16:25:01;24.10;45.00
14049;DHT22;7099;53.922;10.728;2023-06-26T16:29:06;23.90;45.30
14049;DHT22;7099;53.922;10.728;2023-06-26T16:33:12;24.00;46.20
14049;DHT22;7099;53.922;10.728;2023-06-26T16:37:17;24.00;46.10
14049;DHT22;7099;53.922;10.728;2023-06-26T16:41:23;23.70;46.70
14049;DHT22;7099;53.922;10.728;2023-06-26T16:45:29;23.50;47.10
14049;DHT22;7099;53.922;10.728;2023-06-26T16:49:35;23.30;47.60
14049;DHT22;7099;53.922;10.728;2023-06-26T16:53:40;23.10;48.20
14049;DHT22;7099;53.922;10.728;2023-06-26T16:57:46;23.00;49.00
14049;DHT22;7099;53.922;10.728;2023-06-26T17:01:52;23.00;50.00
14049;DHT22;7099;53.922;10.728;2023-06-26T17:05:59;23.40;49.60
14049;DHT22;7099;53.922;10.728;2023-06-26T17:10:05;23.50;49.30
14049;DHT22;7099;53.922;10.728;2023-06-26T17:14:11;23.50;49.60
14049;DHT22;7099;53.922;10.728;2023-06-26T17:18:17;23.50;49.80
14049;DHT22;7099;53.922;10.728;2023-06-26T17:22:22;23.40;49.90
14049;DHT22;7099;53.922;10.728;2023-06-26T17:26:28;23.30;50.20
14049;DHT22;7099;53.922;10.728;2023-06-26T17:30:35;23.20;50.50
14049;DHT22;7099;53.922;10.728;2023-06-26T17:34:41;23.10;50.60
14049;DHT22;7099;53.922;10.728;2023-06-26T17:38:46;23.10;50.40
14049;DHT22;7099;53.922;10.728;2023-06-26T17:42:52;23.20;50.00
14049;DHT22;7099;53.922;10.728;2023-06-26T17:46:57;23.20;50.10
14049;DHT22;7099;53.922;10.728;2023-06-26T17:51:03;23.10;50.30
14049;DHT22;7099;53.922;10.728;2023-06-26T17:55:09;23.00;50.70
14049;DHT22;7099;53.922;10.728;2023-06-26T17:59:15;23.00;51.00
14049;DHT22;7099;53.922;10.728;2023-06-26T18:03:21;23.10;50.30
14049;DHT22;7099;53.922;10.728;2023-06-26T18:07:26;23.20;49.30
14049;DHT22;7099;53.922;10.728;2023-06-26T18:11:33;23.40;49.00
14049;DHT22;7099;53.922;10.728;2023-06-26T18:15:40;23.40;49.10
14049;DHT22;7099;53.922;10.728;2023-06-26T18:19:46;23.10;49.00
14049;DHT22;7099;53.922;10.728;2023-06-26T18:23:51;23.00;50.00
14049;DHT22;7099;53.922;10.728;2023-06-26T18:27:59;22.90;50.20
14049;DHT22;7099;53.922;10.728;2023-06-26T18:32:05;22.80;50.90
14049;DHT22;7099;53.922;10.728;2023-06-26T18:36:11;22.30;51.90
14049;DHT22;7099;53.922;10.728;2023-06-26T18:40:20;22.00;53.00
14049;DHT22;7099;53.922;10.728;2023-06-26T18:44:27;21.80;53.90
14049;DHT22;7099;53.922;10.728;2023-06-26T18:48:33;21.80;54.00
14049;DHT22;7099;53.922;10.728;2023-06-26T18:52:38;21.70;54.10
14049;DHT22;7099;53.922;10.728;2023-06-26T18:56:44;21.70;52.80
14049;DHT22;7099;53.922;10.728;2023-06-26T19:00:50;21.50;52.10
14049;DHT22;7099;53.922;10.728;2023-06-26T19:04:55;21.30;50.30
14049;DHT22;7099;53.922;10.728;2023-06-26T19:09:01;21.20;50.90
14049;DHT22;7099;53.922;10.728;2023-06-26T19:13:06;21.50;49.20
14049;DHT22;7099;53.922;10.728;2023-06-26T19:17:12;21.70;48.60
14049;DHT22;7099;53.922;10.728;2023-06-26T19:21:17;21.70;48.40
14049;DHT22;7099;53.922;10.728;2023-06-26T19:25:23;21.60;48.60
14049;DHT22;7099;53.922;10.728;2023-06-26T19:29:28;21.60;49.00
14049;DHT22;7099;53.922;10.728;2023-06-26T19:33:34;21.60;49.10
14049;DHT22;7099;53.922;10.728;2023-06-26T19:37:40;21.50;49.30
14049;DHT22;7099;53.922;10.728;2023-06-26T19:42:00;21.50;49.70
14049;DHT22;7099;53.922;10.728;2023-06-26T19:46:06;21.40;50.20
14049;DHT22;7099;53.922;10.728;2023-06-26T19:50:12;21.30;50.70
14049;DHT22;7099;53.922;10.728;2023-06-26T19:54:18;21.20;51.10
14049;DHT22;7099;53.922;10.728;2023-06-26T19:58:23;21.10;51.30
14049;DHT22;7099;53.922;10.728;2023-06-26T20:02:28;20.60;52.60
14049;DHT22;7099;53.922;10.728;2023-06-26T20:06:37;20.30;53.60
14049;DHT22;7099;53.922;10.728;2023-06-26T20:10:42;20.10;54.60
14049;DHT22;7099;53.922;10.728;2023-06-26T20:14:48;19.90;54.60
14049;DHT22;7099;53.922;10.728;2023-06-26T20:18:54;20.10;54.80
14049;DHT22;7099;53.922;10.728;2023-06-26T20:22:59;20.20;54.60
14049;DHT22;7099;53.922;10.728;2023-06-26T20:27:06;20.20;54.90
14049;DHT22;7099;53.922;10.728;2023-06-26T20:31:12;20.20;55.10
14049;DHT22;7099;53.922;10.728;2023-06-26T20:35:17;20.20;55.50
14049;DHT22;7099;53.922;10.728;2023-06-26T20:39:23;20.10;55.90
14049;DHT22;7099;53.922;10.728;2023-06-26T20:43:33;20.00;56.20
14049;DHT22;7099;53.922;10.728;2023-06-26T20:47:39;19.90;56.60
14049;DHT22;7099;53.922;10.728;2023-06-26T20:51:50;19.80;56.90
14049;DHT22;7099;53.922;10.728;2023-06-26T20:55:57;19.40;57.70
14049;DHT22;7099;53.922;10.728;2023-06-26T21:00:03;19.40;58.10
14049;DHT22;7099;53.922;10.728;2023-06-26T21:04:10;19.50;58.20
14049;DHT22;7099;53.922;10.728;2023-06-26T21:08:15;19.50;58.30
14049;DHT22;7099;53.922;10.728;2023-06-26T21:12:21;19.50;58.40
14049;DHT22;7099;53.922;10.728;2023-06-26T21:16:27;19.50;58.50
14049;DHT22;7099;53.922;10.728;2023-06-26T21:20:32;19.40;58.80
14049;DHT22;7099;53.922;10.728;2023-06-26T21:24:38;19.30;59.10
14049;DHT22;7099;53.922;10.728;2023-06-26T21:28:43;19.30;59.30
14049;DHT22;7099;53.922;10.728;2023-06-26T21:32:49;19.20;59.70
14049;DHT22;7099;53.922;10.728;2023-06-26T21:36:54;19.20;60.00
14049;DHT22;7099;53.922;10.728;2023-06-26T21:41:00;18.70;60.70
14049;DHT22;7099;53.922;10.728;2023-06-26T21:45:05;18.40;62.30
14049;DHT22;7099;53.922;10.728;2023-06-26T21:49:11;18.30;63.10
14049;DHT22;7099;53.922;10.728;2023-06-26T21:53:17;18.20;62.30
14049;DHT22;7099;53.922;10.728;2023-06-26T21:57:22;18.10;63.80
14049;DHT22;7099;53.922;10.728;2023-06-26T22:01:27;18.10;63.80
14049;DHT22;7099;53.922;10.728;2023-06-26T22:05:33;18.10;63.80
14049;DHT22;7099;53.922;10.728;2023-06-26T22:09:38;18.10;64.50
14049;DHT22;7099;53.922;10.728;2023-06-26T22:13:43;18.10;63.00
14049;DHT22;7099;53.922;10.728;2023-06-26T22:17:54;18.00;64.20
14049;DHT22;7099;53.922;10.728;2023-06-26T22:22:00;17.90;64.50
14049;DHT22;7099;53.922;10.728;2023-06-26T22:26:06;17.90;64.80
14049;DHT22;7099;53.922;10.728;2023-06-26T22:30:12;17.80;65.30
14049;DHT22;7099;53.922;10.728;2023-06-26T22:34:19;17.70;65.60
14049;DHT22;7099;53.922;10.728;2023-06-26T22:38:24;17.70;65.90
14049;DHT22;7099;53.922;10.728;2023-06-26T22:42:30;17.70;66.00
14049;DHT22;7099;53.922;10.728;2023-06-26T22:46:35;17.70;66.20
14049;DHT22;7099;53.922;10.728;2023-06-26T22:50:41;17.60;66.50
14049;DHT22;7099;53.922;10.728;2023-06-26T22:54:46;17.60;66.70
14049;DHT22;7099;53.922;10.728;2023-06-26T22:58:52;17.50;67.00
14049;DHT22;7099;53.922;10.728;2023-06-26T23:02:57;17.50;67.20
14049;DHT22;7099;53.922;10.728;2023-06-26T23:07:03;17.40;67.40
14049;DHT22;7099;53.922;10.728;2023-06-26T23:11:09;17.40;67.70
14049;DHT22;7099;53.922;10.728;2023-06-26T23:15:14;17.30;68.00
14049;DHT22;7099;53.922;10.728;2023-06-26T23:19:21;17.30;68.20
14049;DHT22;7099;53.922;10.728;2023-06-26T23:23:28;17.20;68.40
14049;DHT22;7099;53.922;10.728;2023-06-26T23:27:33;17.10;70.60
14049;DHT22;7099;53.922;10.728;2023-06-26T23:31:46;17.00;70.50
14049;DHT22;7099;53.922;10.728;2023-06-26T23:35:52;16.90;70.60
14049;DHT22;7099;53.922;10.728;2023-06-26T23:39:58;16.90;70.80
14049;DHT22;7099;53.922;10.728;2023-06-26T23:44:04;16.80;71.40
14049;DHT22;7099;53.922;10.728;2023-06-26T23:48:11;16.80;70.90
14049;DHT22;7099;53.922;10.728;2023-06-26T23:52:16;16.80;71.70
14049;DHT22;7099;53.922;10.728;2023-06-26T23:56:21;16.70;72.00
